Time;durP1;ratioP1;P1;durP2;ratioP2;P2;SDS_P1;SDS_P2;PMS_P1;PMS_P2;Temp;Humidity;BMP_temperature;BMP_pressure;BME280_temperature;BME280_humidity;BME280_pressure;Samples;Min_cycle;Max_cycle;Signal;HPM_P1;HPM_P2
2022/08/04 00:00:22;;;;;;;3.47;3.03;;;;;;;18.93;100.00;94666.19;5015216;28;20285;-62
2022/08/04 00:02:51;;;;;;;3.97;3.20;;;;;;;18.92;100.00;94649.94;5033124;28;20631;-63
2022/08/04 00:06:01;;;;;;;3.13;2.78;;;;;;;18.64;100.00;94653.34;5033014;28;20738;-66
2022/08/04 00:08:36;;;;;;;4.95;3.60;;;;;;;18.79;100.00;94669.56;4933593;29;20209;-63
2022/08/04 00:11:02;;;;;;;3.22;2.92;;;;;;;18.54;100.00;94656.19;4933533;29;20308;-63
2022/08/04 00:13:36;;;;;;;3.97;2.88;;;;;;;18.62;100.00;94673.34;4990101;28;20233;-63
2022/08/04 00:16:07;;;;;;;3.70;2.70;;;;;;;18.50;100.00;94669.59;5032687;28;20204;-62
2022/08/04 00:18:46;;;;;;;2.72;2.53;;;;;;;18.42;100.00;94655.78;5032581;28;20194;-62
2022/08/04 00:21:15;;;;;;;3.65;3.03;;;;;;;18.44;100.00;94656.44;5032558;28;20766;-63
2022/08/04 00:23:43;;;;;;;3.90;3.08;;;;;;;18.46;100.00;94652.91;5033078;28;20722;-62
2022/08/04 00:26:09;;;;;;;4.75;2.80;;;;;;;18.47;100.00;94652.72;5031384;28;20198;-62
2022/08/04 00:28:39;;;;;;;3.17;2.67;;;;;;;18.40;100.00;94652.59;5032776;28;20270;-61
2022/08/04 00:31:08;;;;;;;2.50;2.30;;;;;;;18.35;100.00;94649.78;5032380;28;20214;-64
2022/08/04 00:33:36;;;;;;;3.00;2.80;;;;;;;18.38;100.00;94651.97;5031718;28;20652;-63
2022/08/04 00:36:01;;;;;;;3.35;2.85;;;;;;;18.44;100.00;94661.59;5032652;28;20220;-65
2022/08/04 00:38:29;;;;;;;4.72;2.92;;;;;;;18.54;100.00;94665.69;5032343;28;20186;-63
2022/08/04 00:40:54;;;;;;;3.33;2.92;;;;;;;18.41;100.00;94656.78;5032394;28;20221;-62
2022/08/04 00:44:08;;;;;;;3.15;2.78;;;;;;;18.35;100.00;94649.78;5032650;28;20186;-63
2022/08/04 00:46:49;;;;;;;7.28;3.10;;;;;;;18.37;100.00;94639.28;5005303;28;20230;-66
2022/08/04 00:49:38;;;;;;;3.45;2.80;;;;;;;18.46;100.00;94648.56;5032642;28;20590;-62
2022/08/04 00:52:32;;;;;;;5.25;3.47;;;;;;;18.49;100.00;94650.78;5032023;28;20224;-62
2022/08/04 00:55:00;;;;;;;3.55;3.20;;;;;;;18.46;100.00;94655.50;5031998;28;20190;-62
2022/08/04 00:57:59;;;;;;;2.78;2.50;;;;;;;18.39;100.00;94643.28;5032140;28;20217;-62
2022/08/04 01:00:27;;;;;;;5.03;3.40;;;;;;;18.37;100.00;94655.53;5032001;28;20210;-62
2022/08/04 01:03:22;;;;;;;3.60;3.30;;;;;;;18.30;100.00;94659.00;5014127;28;20206;-62
2022/08/04 01:06:10;;;;;;;4.30;3.42;;;;;;;18.16;100.00;94663.13;5032073;28;20214;-62
2022/08/04 01:08:38;;;;;;;4.63;3.40;;;;;;;18.15;100.00;94661.56;5032242;28;20186;-66
2022/08/04 01:11:17;;;;;;;3.85;2.53;;;;;;;18.10;100.00;94673.34;5013995;28;20213;-63
2022/08/04 01:13:45;;;;;;;3.70;2.72;;;;;;;17.97;100.00;94661.09;5014416;28;20564;-65
2022/08/04 01:16:15;;;;;;;5.78;3.65;;;;;;;17.93;100.00;94653.88;5031786;28;20199;-63
2022/08/04 01:19:06;;;;;;;4.40;2.90;;;;;;;17.79;100.00;94663.16;5032231;28;20201;-62
2022/08/04 01:22:00;;;;;;;3.50;3.20;;;;;;;17.86;100.00;94664.06;5031781;28;20205;-62
2022/08/04 01:24:37;;;;;;;8.05;3.22;;;;;;;17.81;100.00;94663.78;5031879;28;20244;-62
2022/08/04 01:27:10;;;;;;;4.75;3.13;;;;;;;17.85;100.00;94670.19;5013750;28;20600;-63
2022/08/04 01:29:50;;;;;;;4.32;3.65;;;;;;;17.90;100.00;94662.75;5031674;28;20594;-63
2022/08/04 01:32:26;;;;;;;4.95;2.90;;;;;;;17.98;100.00;94665.25;5031454;28;20206;-63
2022/08/04 01:35:02;;;;;;;5.78;3.42;;;;;;;18.01;100.00;94669.25;5031736;28;20277;-63
2022/08/04 01:37:27;;;;;;;3.28;2.92;;;;;;;17.98;100.00;94667.00;5031740;28;20277;-63
2022/08/04 01:40:13;;;;;;;4.57;3.38;;;;;;;18.05;100.00;94655.88;5031647;28;20230;-61
2022/08/04 01:42:40;;;;;;;5.70;3.70;;;;;;;18.13;100.00;94667.84;5031413;28;20229;-66
2022/08/04 01:45:08;;;;;;;3.42;3.13;;;;;;;18.09;100.00;94658.88;5013365;28;20178;-65
2022/08/04 01:47:37;;;;;;;3.78;3.47;;;;;;;17.95;100.00;94644.22;5031311;28;20190;-67
2022/08/04 01:50:09;;;;;;;4.07;3.20;;;;;;;18.08;100.00;94652.94;5031327;28;20230;-65
2022/08/04 01:52:37;;;;;;;6.93;3.03;;;;;;;18.21;100.00;94694.31;5013532;28;20194;-62
2022/08/04 01:55:12;;;;;;;4.45;3.10;;;;;;;18.20;100.00;94691.91;5014093;28;20186;-63
2022/08/04 01:57:46;;;;;;;4.13;2.90;;;;;;;18.08;100.00;94675.31;5031304;28;20241;-62
2022/08/04 02:00:15;;;;;;;3.28;2.97;;;;;;;18.09;100.00;94671.75;5031417;28;20571;-64
2022/08/04 02:02:41;;;;;;;3.33;2.75;;;;;;;18.05;100.00;94684.16;5031196;28;20190;-63
2022/08/04 02:05:10;;;;;;;3.13;2.72;;;;;;;17.84;100.00;94657.47;5030953;28;20197;-62
2022/08/04 02:08:18;;;;;;;3.45;2.80;;;;;;;18.00;100.00;94663.28;5031253;28;20195;-63
2022/08/04 02:11:02;;;;;;;8.55;3.30;;;;;;;17.94;100.00;94668.31;5013481;28;20225;-61
2022/08/04 02:14:43;;;;;;;5.65;3.00;;;;;;;18.07;100.00;94674.50;5031426;28;20502;-62
2022/08/04 02:17:14;;;;;;;3.78;2.78;;;;;;;17.93;100.00;94669.31;4937083;28;20308;-66
2022/08/04 02:20:21;;;;;;;2.90;2.65;;;;;;;17.89;100.00;94663.72;5013148;28;20209;-63
2022/08/04 02:22:54;;;;;;;4.18;3.15;;;;;;;17.82;100.00;94644.00;5031143;28;20275;-66
2022/08/04 02:25:25;;;;;;;3.67;3.08;;;;;;;17.70;100.00;94645.38;5013054;28;20189;-62
2022/08/04 02:27:55;;;;;;;3.53;3.22;;;;;;;17.69;100.00;94651.50;5031230;28;20201;-66
2022/08/04 02:30:24;;;;;;;3.70;2.63;;;;;;;17.68;100.00;94647.34;5030673;28;20263;-62
2022/08/04 02:32:54;;;;;;;4.57;3.03;;;;;;;17.81;100.00;94674.09;5030703;28;20208;-62
2022/08/04 02:35:25;;;;;;;5.18;2.95;;;;;;;17.78;100.00;94668.47;5013098;28;20244;-62
2022/08/04 02:38:03;;;;;;;4.22;2.63;;;;;;;17.73;100.00;94655.34;5030925;28;20209;-63
2022/08/04 02:40:29;;;;;;;3.38;3.08;;;;;;;17.75;100.00;94667.06;5030769;28;20209;-63
2022/08/04 02:42:57;;;;;;;4.25;2.90;;;;;;;17.71;100.00;94665.81;5012841;28;20198;-62
2022/08/04 02:45:25;;;;;;;4.88;3.33;;;;;;;17.59;100.00;94649.97;5030559;28;20226;-63
2022/08/04 02:47:54;;;;;;;4.57;3.35;;;;;;;17.66;100.00;94651.84;5030785;28;20186;-63
2022/08/04 02:50:20;;;;;;;5.13;3.00;;;;;;;17.73;100.00;94669.00;5012647;28;20218;-65
2022/08/04 02:52:49;;;;;;;3.22;2.97;;;;;;;17.71;100.00;94663.22;5012949;28;20210;-68
2022/08/04 02:55:17;;;;;;;3.65;3.15;;;;;;;17.69;100.00;94660.03;5030929;28;20179;-61
2022/08/04 02:57:46;;;;;;;3.65;3.10;;;;;;;17.75;100.00;94664.50;5034406;28;20202;-62
2022/08/04 03:00:13;;;;;;;5.78;3.08;;;;;;;17.58;100.00;94648.38;5034110;28;20194;-65
2022/08/04 03:02:57;;;;;;;3.70;2.90;;;;;;;17.67;100.00;94656.84;5033928;28;20328;-62
2022/08/04 03:05:58;;;;;;;6.43;3.80;;;;;;;17.58;100.00;94655.28;5033700;28;20197;-62
2022/08/04 03:08:44;;;;;;;3.83;3.53;;;;;;;17.52;100.00;94661.13;5018575;28;20182;-63
2022/08/04 03:11:10;;;;;;;7.70;3.50;;;;;;;17.48;100.00;94662.41;5016032;28;20316;-63
2022/08/04 03:14:06;;;;;;;4.82;3.55;;;;;;;17.60;100.00;94669.56;5015814;28;20292;-65
2022/08/04 03:16:53;;;;;;;5.38;3.70;;;;;;;17.55;100.00;94663.34;5015626;28;20216;-62
2022/08/04 03:20:05;;;;;;;6.22;3.67;;;;;;;17.57;100.00;94666.56;5033945;28;20659;-62
2022/08/04 03:22:50;;;;;;;3.70;3.30;;;;;;;17.68;100.00;94655.84;4958221;28;20208;-63
2022/08/04 03:25:37;;;;;;;7.20;3.70;;;;;;;17.57;100.00;94656.28;5033863;28;20197;-65
2022/08/04 03:28:05;;;;;;;4.07;3.60;;;;;;;17.58;100.00;94673.28;5033620;28;20676;-61
2022/08/04 03:30:50;;;;;;;5.70;3.38;;;;;;;17.67;100.00;94663.75;5015436;28;20221;-62
2022/08/04 03:33:34;;;;;;;5.72;3.30;;;;;;;17.66;100.00;94680.13;5033109;28;20746;-62
2022/08/04 03:36:02;;;;;;;5.25;3.35;;;;;;;17.70;100.00;94689.09;5033134;28;20710;-63
2022/08/04 03:38:57;;;;;;;7.47;4.00;;;;;;;17.60;100.00;94661.84;5033207;28;20201;-61
2022/08/04 03:41:28;;;;;;;5.40;3.28;;;;;;;17.69;100.00;94666.94;5039471;23;20275;-62
2022/08/04 03:44:15;;;;;;;5.00;3.70;;;;;;;17.82;100.00;94678.25;5053200;28;20186;-64
2022/08/04 03:47:05;;;;;;;10.75;3.25;;;;;;;17.77;100.00;94674.59;5053168;28;20228;-67
2022/08/04 03:49:39;;;;;;;4.60;3.15;;;;;;;17.79;100.00;94673.47;5052820;28;20224;-64
2022/08/04 03:54:58;;;;;;;4.20;3.10;;;;;;;17.74;100.00;94670.59;5053406;28;20239;-65
2022/08/04 03:57:46;;;;;;;4.05;3.05;;;;;;;17.67;100.00;94677.41;5052745;28;20201;-63
2022/08/04 04:00:17;;;;;;;3.53;3.22;;;;;;;17.69;100.00;94687.50;5052533;28;20201;-60
2022/08/04 04:03:10;;;;;;;4.97;3.42;;;;;;;17.63;100.00;94688.19;5052760;28;20188;-65
2022/08/04 04:05:56;;;;;;;4.03;3.63;;;;;;;17.49;100.00;94669.19;5052894;28;20218;-63
2022/08/04 04:09:05;;;;;;;4.28;3.78;;;;;;;17.67;100.00;94656.03;5052733;28;20182;-65
2022/08/04 04:14:23;;;;;;;5.05;3.47;;;;;;;17.77;100.00;94672.03;5058214;22;20270;-63
2022/08/04 04:17:13;;;;;;;3.70;3.28;;;;;;;17.90;100.00;94672.22;5052699;28;20221;-64
2022/08/04 04:20:01;;;;;;;3.95;3.63;;;;;;;18.04;100.00;94679.97;5052426;28;20751;-64
2022/08/04 04:22:36;;;;;;;7.03;3.78;;;;;;;18.32;100.00;94701.59;5052599;28;20213;-61
2022/08/04 04:25:22;;;;;;;3.53;3.30;;;;;;;18.33;100.00;94735.88;5052065;28;20197;-61
2022/08/04 04:28:26;;;;;;;4.85;3.17;;;;;;;18.18;100.00;94727.31;5052358;28;20280;-61
2022/08/04 04:34:12;;;;;;;3.67;3.28;;;;;;;17.98;100.00;94685.81;5058390;22;20264;-63
2022/08/04 04:36:46;;;;;;;4.43;3.78;;;;;;;18.00;100.00;94683.88;5052298;28;20579;-63
2022/08/04 04:39:49;;;;;;;4.57;3.67;;;;;;;18.06;100.00;94695.25;5052116;28;20215;-61
2022/08/04 04:42:23;;;;;;;4.70;3.65;;;;;;;18.03;100.00;94673.25;5052430;28;20213;-62
2022/08/04 04:48:04;;;;;;;5.85;3.97;;;;;;;18.38;100.00;94705.25;5058561;22;20229;-64
2022/08/04 04:50:36;;;;;;;5.13;4.03;;;;;;;18.31;100.00;94707.72;5049078;28;20229;-63
2022/08/04 04:53:16;;;;;;;5.53;4.00;;;;;;;18.29;100.00;94690.84;5052240;28;20209;-64
2022/08/04 04:55:51;;;;;;;5.05;3.65;;;;;;;18.31;100.00;94707.72;5051166;28;20213;-63
2022/08/04 04:58:18;;;;;;;7.57;3.92;;;;;;;18.41;100.00;94702.31;5051461;28;20659;-63
2022/08/04 05:01:09;;;;;;;4.75;3.65;;;;;;;18.57;100.00;94716.81;5051913;28;20579;-62
2022/08/04 05:03:34;;;;;;;6.20;3.63;;;;;;;18.50;100.00;94718.53;5033902;28;20200;-64
2022/08/04 05:06:14;;;;;;;4.68;3.97;;;;;;;18.45;100.00;94708.75;5051930;28;20213;-62
2022/08/04 05:08:48;;;;;;;3.72;3.42;;;;;;;18.54;100.00;94678.56;5033798;28;20193;-63
2022/08/04 05:11:19;;;;;;;7.18;4.20;;;;;;;18.68;100.00;94685.50;5051845;28;20209;-62
2022/08/04 05:13:55;;;;;;;6.00;4.07;;;;;;;19.02;100.00;94675.41;5033996;28;20288;-65
2022/08/04 05:16:42;;;;;;;5.32;4.03;;;;;;;19.67;100.00;94686.47;5051833;28;20243;-65
2022/08/04 05:19:24;;;;;;;5.75;3.63;;;;;;;20.24;100.00;94693.34;5051175;28;20655;-66
2022/08/04 05:22:12;;;;;;;7.63;3.72;;;;;;;20.63;100.00;94745.25;5051756;28;20205;-61
2022/08/04 05:24:40;;;;;;;6.03;4.38;;;;;;;20.91;100.00;94826.97;5051697;28;20185;-65
2022/08/04 05:27:35;;;;;;;5.22;3.97;;;;;;;21.07;100.00;94757.91;5051219;28;20210;-62
2022/08/04 05:30:04;;;;;;;6.70;3.80;;;;;;;21.20;100.00;94804.50;5057364;22;20662;-65
2022/08/04 05:32:38;;;;;;;3.80;3.50;;;;;;;21.30;100.00;94803.16;5031151;28;20226;-65
2022/08/04 05:35:09;;;;;;;6.00;3.90;;;;;;;21.36;100.00;94778.31;5031289;28;20194;-66
2022/08/04 05:37:39;;;;;;;5.53;4.32;;;;;;;21.30;100.00;94774.72;5063210;22;20221;-62
2022/08/04 05:40:07;;;;;;;6.82;4.15;;;;;;;21.43;100.00;94779.94;5011502;28;20191;-63
2022/08/04 05:42:37;;;;;;;6.03;3.97;;;;;;;21.57;96.91;94838.50;5055642;22;20237;-63
2022/08/04 05:45:04;;;;;;;4.30;3.17;;;;;;;21.63;97.44;94814.44;5051004;28;20265;-62
2022/08/04 05:47:31;;;;;;;5.45;3.72;;;;;;;21.72;97.38;94812.50;5031137;28;20183;-62
2022/08/04 05:50:00;;;;;;;4.65;3.40;;;;;;;21.65;96.17;94815.03;5031138;28;20601;-66
2022/08/04 05:52:27;;;;;;;5.65;4.20;;;;;;;21.39;93.13;94840.81;5031024;28;20618;-67
2022/08/04 05:54:54;;;;;;;5.85;3.70;;;;;;;21.38;96.93;94787.50;5031153;28;20664;-67
2022/08/04 05:57:20;;;;;;;5.68;3.95;;;;;;;21.44;93.06;94835.06;5031377;28;20269;-63
2022/08/04 05:59:48;;;;;;;4.53;4.13;;;;;;;21.39;92.32;94840.81;5031109;28;20741;-67
2022/08/04 06:02:17;;;;;;;7.05;3.65;;;;;;;21.09;93.44;94823.91;5013431;28;20287;-66
2022/08/04 06:04:47;;;;;;;4.80;4.40;;;;;;;20.76;95.83;94777.16;5031126;28;20240;-67
2022/08/04 06:07:14;;;;;;;4.82;4.30;;;;;;;20.67;99.10;94752.44;5030997;28;20297;-64
2022/08/04 06:09:40;;;;;;;4.90;3.33;;;;;;;20.68;100.00;94722.25;5030854;28;20252;-68
2022/08/04 06:12:14;;;;;;;5.10;4.20;;;;;;;20.88;99.76;94746.41;5031221;28;20631;-68
2022/08/04 06:14:43;;;;;;;5.05;4.28;;;;;;;20.92;98.14;94768.31;5031830;28;20700;-68
2022/08/04 06:17:13;;;;;;;6.85;4.05;;;;;;;20.90;100.00;94727.16;5031047;28;20210;-64
2022/08/04 06:19:40;;;;;;;6.15;4.63;;;;;;;21.01;99.41;94749.06;5031208;28;20194;-64
2022/08/04 06:22:11;;;;;;;6.28;4.50;;;;;;;20.97;100.00;94729.75;5060377;22;20225;-66
2022/08/04 06:24:38;;;;;;;3.35;3.05;;;;;;;21.29;100.00;94739.47;5056786;22;20225;-67
2022/08/04 06:27:05;;;;;;;9.30;5.50;;;;;;;21.55;97.95;94786.16;5038887;23;20221;-67
2022/08/04 06:29:39;;;;;;;7.53;4.60;;;;;;;21.51;96.22;94787.53;5050662;28;20233;-63
2022/08/04 06:37:26;;;;;;;8.10;4.55;;;;;;;21.68;97.37;94788.00;5063398;22;20243;-63
2022/08/04 06:39:53;;;;;;;7.85;5.47;;;;;;;22.07;94.86;94815.81;5036370;28;20193;-63
2022/08/04 06:42:21;;;;;;;6.53;4.47;;;;;;;22.16;92.87;94832.78;5016497;28;20691;-61
2022/08/04 06:44:49;;;;;;;5.25;4.75;;;;;;;22.26;92.10;94839.16;5034913;28;20217;-66
2022/08/04 06:47:18;;;;;;;7.50;4.25;;;;;;;22.63;90.33;94861.19;5034342;28;20205;-69
2022/08/04 06:49:46;;;;;;;4.95;4.45;;;;;;;22.73;88.37;94886.69;5034089;28;20231;-63
2022/08/04 06:52:16;;;;;;;7.95;5.70;;;;;;;22.74;87.66;94883.13;5032867;28;20226;-69
2022/08/04 06:54:46;;;;;;;8.73;4.57;;;;;;;22.82;87.77;94869.97;5034888;28;20191;-61
2022/08/04 06:57:17;;;;;;;8.02;4.60;;;;;;;23.00;87.94;94868.38;5053494;22;20714;-68
2022/08/04 06:59:45;;;;;;;7.65;5.35;;;;;;;23.14;88.88;94849.22;5055156;28;20192;-63
2022/08/04 07:02:22;;;;;;;8.80;5.40;;;;;;;23.43;89.89;94831.63;5054498;28;20213;-62
2022/08/04 07:04:48;;;;;;;6.97;4.90;;;;;;;23.54;91.17;94815.41;5054452;28;20193;-67
2022/08/04 07:07:15;;;;;;;7.43;4.70;;;;;;;23.70;88.59;94862.47;5060305;22;20328;-68
2022/08/04 07:09:41;;;;;;;11.38;7.03;;;;;;;23.71;84.85;94910.81;5053828;28;20264;-63
2022/08/04 07:12:08;;;;;;;9.00;5.80;;;;;;;23.55;86.13;94885.31;5070778;22;20702;-63
2022/08/04 07:14:36;;;;;;;9.15;5.78;;;;;;;23.45;86.88;94858.97;5053827;28;20189;-62
2022/08/04 07:17:08;;;;;;;9.68;5.80;;;;;;;23.49;85.51;94865.34;5053669;28;20213;-63
2022/08/04 07:19:35;;;;;;;6.53;5.25;;;;;;;23.71;85.82;94876.25;5053597;28;20228;-61
2022/08/04 07:22:02;;;;;;;6.82;5.20;;;;;;;23.73;84.32;94887.25;5054340;28;20228;-68
2022/08/04 07:24:36;;;;;;;7.95;5.35;;;;;;;23.88;84.71;94896.38;5053595;28;20212;-67
2022/08/04 07:27:03;;;;;;;10.85;5.75;;;;;;;23.99;83.67;94895.75;5053931;28;20223;-67
2022/08/04 07:29:29;;;;;;;8.23;6.13;;;;;;;23.89;82.03;94910.16;5054525;28;20221;-69
2022/08/04 07:31:57;;;;;;;8.55;5.93;;;;;;;23.95;82.71;94898.94;5035917;28;20218;-63
2022/08/04 07:34:24;;;;;;;8.82;6.55;;;;;;;24.04;78.76;94939.31;5035927;28;20276;-63
2022/08/04 07:36:53;;;;;;;5.93;5.10;;;;;;;23.67;83.30;94865.50;5053324;28;20275;-64
2022/08/04 07:39:20;;;;;;;8.60;5.43;;;;;;;23.65;82.18;94877.88;5053302;28;20190;-67
2022/08/04 07:41:46;;;;;;;10.07;6.18;;;;;;;23.72;81.55;94893.41;5052621;28;20300;-68
2022/08/04 07:44:14;;;;;;;8.40;5.35;;;;;;;23.91;81.85;94877.00;5053338;28;20643;-61
2022/08/04 07:46:39;;;;;;;7.93;5.40;;;;;;;23.94;81.81;94881.75;5053161;28;20217;-66
2022/08/04 07:49:06;;;;;;;7.78;5.72;;;;;;;23.94;81.66;94871.38;5053150;28;20300;-62
2022/08/04 07:51:34;;;;;;;9.07;5.63;;;;;;;24.03;82.04;94867.56;5035119;28;20213;-62
2022/08/04 07:54:02;;;;;;;8.75;5.10;;;;;;;24.18;82.67;94862.88;5035137;28;20216;-63
2022/08/04 07:56:29;;;;;;;8.05;5.35;;;;;;;24.24;81.88;94882.84;5053163;28;20224;-64
2022/08/04 07:58:55;;;;;;;9.40;5.93;;;;;;;24.37;81.90;94869.78;5052936;28;20224;-67
2022/08/04 08:01:21;;;;;;;8.88;5.15;;;;;;;24.54;81.42;94885.69;5035137;28;20206;-68
2022/08/04 08:03:47;;;;;;;7.82;5.22;;;;;;;24.47;79.67;94903.94;5065327;22;20252;-61
2022/08/04 08:06:13;;;;;;;9.82;5.80;;;;;;;24.42;79.28;94901.16;5052949;28;20229;-63
2022/08/04 08:08:39;;;;;;;6.50;5.38;;;;;;;24.31;78.66;94914.81;5053279;28;20228;-68
2022/08/04 08:11:05;;;;;;;9.68;4.70;;;;;;;24.53;79.23;94900.50;5052538;28;20287;-67
2022/08/04 08:13:32;;;;;;;5.60;4.85;;;;;;;24.53;79.52;94891.91;5052984;28;20219;-67
2022/08/04 08:15:58;;;;;;;5.85;4.88;;;;;;;24.67;79.43;94890.81;5058966;22;20702;-68
2022/08/04 08:18:24;;;;;;;6.97;4.68;;;;;;;24.78;79.87;94890.16;5052569;28;20268;-67
2022/08/04 08:20:52;;;;;;;5.90;4.45;;;;;;;24.86;79.04;94890.72;5052648;28;20293;-62
2022/08/04 08:23:18;;;;;;;8.10;4.82;;;;;;;24.88;79.34;94890.50;5035007;28;20236;-64
2022/08/04 08:25:44;;;;;;;6.50;5.10;;;;;;;24.90;77.87;94915.31;5034621;28;20213;-63
2022/08/04 08:28:10;;;;;;;7.60;5.20;;;;;;;24.95;76.93;94936.25;5052619;28;20274;-64
2022/08/04 08:30:36;;;;;;;7.53;4.40;;;;;;;24.97;76.77;94929.03;5034626;28;20775;-62
2022/08/04 08:33:07;;;;;;;5.72;5.10;;;;;;;24.96;75.95;94944.88;5052479;28;20251;-61
2022/08/04 08:35:49;;;;;;;6.38;5.18;;;;;;;24.92;73.02;94999.16;5052555;28;20289;-67
2022/08/04 08:38:17;;;;;;;5.97;4.78;;;;;;;24.86;73.44;94980.97;5052499;28;20174;-67
2022/08/04 08:40:57;;;;;;;7.38;4.38;;;;;;;24.93;72.84;94986.91;5052296;28;20284;-68
2022/08/04 08:43:50;;;;;;;6.43;4.55;;;;;;;25.01;70.83;95017.09;5052390;28;20204;-67
2022/08/04 08:47:00;;;;;;;3.92;3.42;;;;;;;24.89;69.20;95007.34;5052438;28;20227;-61
2022/08/04 08:49:47;;;;;;;7.90;4.47;;;;;;;25.05;70.01;94993.03;5006660;28;20316;-61
2022/08/04 08:52:25;;;;;;;4.95;3.90;;;;;;;25.26;68.70;95012.72;5051923;28;20224;-68
2022/08/04 08:55:20;;;;;;;6.82;3.83;;;;;;;25.10;68.72;94995.00;5051610;28;20184;-67
2022/08/04 09:00:54;;;;;;;6.50;4.07;;;;;;;25.29;67.09;95035.75;5058603;22;20221;-65
2022/08/04 09:03:35;;;;;;;5.40;4.07;;;;;;;25.52;68.67;94978.69;5051856;28;20181;-66
2022/08/04 09:06:30;;;;;;;6.65;4.03;;;;;;;25.58;71.45;94918.75;5051737;28;20240;-66
2022/08/04 09:09:13;;;;;;;7.10;4.70;;;;;;;25.65;70.65;94934.31;5051767;28;20200;-60
2022/08/04 09:11:47;;;;;;;7.47;4.80;;;;;;;25.77;69.78;94951.63;5051700;28;20228;-60
2022/08/04 09:14:52;;;;;;;5.85;5.05;;;;;;;25.82;70.83;94922.31;5052256;28;20200;-67
2022/08/04 09:17:32;;;;;;;5.07;3.72;;;;;;;25.69;64.37;95071.72;5051857;28;20205;-60
2022/08/04 09:20:26;;;;;;;7.55;3.85;;;;;;;25.96;66.92;94995.94;5051667;28;20262;-64
2022/08/04 09:23:10;;;;;;;5.88;3.92;;;;;;;26.07;68.29;94959.56;5013972;28;20198;-64
2022/08/04 09:26:01;;;;;;;6.30;4.07;;;;;;;26.02;68.06;94956.75;5051487;28;20240;-66
2022/08/04 09:28:30;;;;;;;6.05;3.65;;;;;;;25.93;68.25;94946.84;5051622;28;20347;-65
2022/08/04 09:31:06;;;;;;;4.50;3.90;;;;;;;26.09;66.77;94977.59;5051160;28;20286;-66
2022/08/04 09:33:37;;;;;;;8.75;4.00;;;;;;;25.99;63.48;95053.66;5033683;28;20204;-64
2022/08/04 09:36:33;;;;;;;5.75;4.28;;;;;;;26.07;64.54;95021.31;5033479;28;20206;-60
2022/08/04 09:39:08;;;;;;;3.97;3.47;;;;;;;26.07;62.32;95065.63;5051588;28;20200;-60
2022/08/04 09:42:08;;;;;;;4.32;3.75;;;;;;;26.11;63.56;95030.28;5051406;28;20212;-60
2022/08/04 09:44:55;;;;;;;6.15;4.10;;;;;;;26.27;65.21;94973.16;5051414;28;20209;-66
2022/08/04 09:47:48;;;;;;;5.53;3.72;;;;;;;26.50;64.13;95006.41;5051622;28;20208;-64
2022/08/04 09:50:25;;;;;;;8.25;3.67;;;;;;;26.94;59.28;95113.09;5050904;28;20216;-63
2022/08/04 09:53:28;;;;;;;7.13;3.50;;;;;;;26.98;62.71;95016.84;5051215;28;20260;-63
2022/08/04 09:56:08;;;;;;;3.92;3.50;;;;;;;27.01;57.79;95132.06;5050991;28;20217;-64
2022/08/04 09:59:00;;;;;;;6.32;3.50;;;;;;;27.16;59.42;95076.84;5033273;28;20793;-60
2022/08/04 10:01:29;;;;;;;4.75;3.40;;;;;;;27.35;60.20;95047.09;5051006;28;20722;-63
2022/08/04 10:03:59;;;;;;;4.90;3.33;;;;;;;27.11;58.22;95093.16;5051175;28;20663;-60
2022/08/04 10:07:03;;;;;;;3.80;3.08;;;;;;;27.39;55.55;95153.50;5050950;28;20209;-61
2022/08/04 10:09:53;;;;;;;8.43;3.67;;;;;;;27.50;58.07;95076.19;4969352;28;20221;-63
2022/08/04 10:12:24;;;;;;;4.30;3.30;;;;;;;27.43;55.16;95135.59;5033044;28;20220;-63
2022/08/04 10:15:02;;;;;;;5.43;3.65;;;;;;;27.23;55.86;95093.25;5051252;28;20193;-64
2022/08/04 10:17:44;;;;;;;5.80;3.97;;;;;;;27.05;58.63;95020.97;5050760;28;20212;-66
2022/08/04 10:20:31;;;;;;;6.05;3.67;;;;;;;27.55;59.79;95002.38;5050941;28;20189;-66
2022/08/04 10:23:04;;;;;;;6.20;4.13;;;;;;;27.65;59.09;95013.88;5050801;28;20707;-65
2022/08/04 10:25:44;;;;;;;6.20;3.70;;;;;;;27.63;58.11;95033.41;5032821;28;20216;-60
2022/08/04 10:28:18;;;;;;;3.85;3.38;;;;;;;27.43;59.04;95007.59;5050920;28;20189;-60
2022/08/04 10:30:51;;;;;;;9.88;3.97;;;;;;;27.33;58.96;94994.25;5032359;28;20771;-63
2022/08/04 10:33:41;;;;;;;13.45;7.20;;;;;;;27.61;59.74;94983.97;5050744;28;20280;-66
2022/08/04 10:36:10;;;;;;;6.22;4.18;;;;;;;27.43;58.95;94994.53;5050514;28;20768;-63
2022/08/04 10:38:48;;;;;;;24.42;4.20;;;;;;;27.71;58.43;95010.34;5032545;28;20247;-66
2022/08/04 10:41:48;;;;;;;7.10;4.28;;;;;;;27.69;59.22;94981.03;5050376;28;20209;-66
2022/08/04 10:44:39;;;;;;;5.43;4.03;;;;;;;27.79;56.84;95041.38;5032602;28;20262;-64
2022/08/04 10:47:16;;;;;;;4.80;3.45;;;;;;;28.04;55.85;95062.88;5056836;22;20710;-63
2022/08/04 10:49:44;;;;;;;5.18;3.50;;;;;;;28.27;57.60;95003.75;5050208;28;20209;-66
2022/08/04 10:52:29;;;;;;;6.60;3.45;;;;;;;28.67;52.74;95161.63;5032980;28;20772;-65
2022/08/04 10:55:34;;;;;;;7.97;3.50;;;;;;;29.19;49.66;95213.03;5030087;28;20197;-64
2022/08/04 10:58:03;;;;;;;8.00;4.28;;;;;;;29.56;52.01;95119.97;4950032;29;20762;-65
2022/08/04 11:00:32;;;;;;;5.47;4.32;;;;;;;29.86;49.05;95187.13;5014884;28;20715;-65
2022/08/04 11:03:10;;;;;;;5.07;3.60;;;;;;;30.01;48.31;95200.47;5029909;28;20198;-67
2022/08/04 11:05:48;;;;;;;6.70;2.92;;;;;;;29.79;44.96;95287.69;5012582;28;20648;-64
2022/08/04 11:08:30;;;;;;;4.35;2.80;;;;;;;29.81;43.79;95125.69;5029973;28;20265;-64
2022/08/04 11:10:59;;;;;;;3.17;2.88;;;;;;;29.55;43.29;95076.41;5029860;28;20711;-63
2022/08/04 11:13:32;;;;;;;3.47;2.78;;;;;;;30.03;43.06;95041.03;5030194;28;20205;-60
2022/08/04 11:16:04;;;;;;;3.17;2.90;;;;;;;30.40;44.35;94995.63;5030332;28;20562;-60
2022/08/04 11:19:07;;;;;;;2.97;2.70;;;;;;;30.75;40.08;95068.78;5033665;28;20639;-66
2022/08/04 11:21:38;;;;;;;4.18;2.72;;;;;;;30.94;42.23;95008.88;5015649;28;20218;-65
2022/08/04 11:24:17;;;;;;;3.38;2.80;;;;;;;31.37;42.90;94964.88;5033492;28;20201;-66
2022/08/04 11:26:52;;;;;;;2.97;2.60;;;;;;;30.87;38.08;95006.44;5033557;28;20221;-65
2022/08/04 11:29:27;;;;;;;4.13;2.65;;;;;;;30.98;37.32;94895.19;5033261;28;20272;-66
2022/08/04 11:31:58;;;;;;;4.10;2.47;;;;;;;31.12;41.84;94824.63;5033383;28;20263;-65
2022/08/04 11:34:25;;;;;;;3.17;2.30;;;;;;;31.28;40.74;94837.63;5033368;28;20194;-60
2022/08/04 11:37:26;;;;;;;5.90;2.58;;;;;;;30.96;40.73;94828.19;5033190;28;20210;-63
2022/08/04 11:39:59;;;;;;;3.55;2.25;;;;;;;30.18;39.46;94847.09;5015471;28;20206;-66
2022/08/04 11:42:36;;;;;;;3.92;2.38;;;;;;;29.88;39.38;94839.66;5033507;28;20242;-60
2022/08/04 11:45:07;;;;;;;3.00;2.67;;;;;;;30.38;39.26;94826.34;5033203;28;20296;-60
2022/08/04 11:47:32;;;;;;;7.75;2.80;;;;;;;30.21;38.57;94838.72;5032995;28;20197;-59
2022/08/04 11:50:40;;;;;;;3.20;2.90;;;;;;;29.92;41.46;94793.56;5015341;28;20631;-68
2022/08/04 11:53:07;;;;;;;3.33;2.97;;;;;;;29.70;44.45;94748.97;5022665;28;20268;-61
2022/08/04 11:55:35;;;;;;;2.53;2.33;;;;;;;29.21;42.75;94770.88;5032782;28;20233;-60
2022/08/04 11:58:01;;;;;;;3.28;2.85;;;;;;;29.39;42.84;94770.59;5032909;28;20193;-64
2022/08/04 12:00:30;;;;;;;3.78;2.88;;;;;;;30.19;41.03;94798.81;5032873;28;20207;-61
2022/08/04 12:03:14;;;;;;;3.75;3.15;;;;;;;30.80;41.05;94801.00;5032952;28;20623;-63
2022/08/04 12:06:08;;;;;;;4.40;2.85;;;;;;;30.99;41.35;94804.81;5033109;28;20249;-59
2022/08/04 12:09:07;;;;;;;3.60;2.42;;;;;;;31.35;38.55;94842.66;5033092;28;20651;-66
2022/08/04 12:11:55;;;;;;;2.50;2.30;;;;;;;31.38;37.85;94834.25;5015080;28;20210;-68
2022/08/04 12:15:05;;;;;;;5.18;2.60;;;;;;;31.12;38.89;94816.72;5033077;28;20572;-65
2022/08/04 12:17:41;;;;;;;3.20;2.70;;;;;;;31.06;38.57;94821.16;4970662;28;20205;-60
2022/08/04 12:20:09;;;;;;;3.20;2.50;;;;;;;31.02;40.08;94788.56;5014821;28;20190;-66
2022/08/04 12:22:40;;;;;;;2.95;2.75;;;;;;;31.02;39.54;94809.59;5032538;28;20182;-63
2022/08/04 12:25:14;;;;;;;3.13;2.92;;;;;;;30.65;39.17;94816.59;5032611;28;20193;-64
2022/08/04 12:27:50;;;;;;;4.07;2.70;;;;;;;30.34;40.38;94778.03;5031946;28;20648;-60
2022/08/04 12:30:18;;;;;;;2.80;2.42;;;;;;;30.01;39.44;94809.66;5014615;28;20201;-65
2022/08/04 12:33:13;;;;;;;3.05;2.50;;;;;;;30.01;40.73;94780.78;5032519;28;20244;-67